createdAt,value
2017-09-21T00:01:11.791Z,22.83
2017-09-21T00:03:40.857Z,26.40
2017-09-21T00:06:09.084Z,22.30
2017-09-21T00:08:37.406Z,27.97
2017-09-21T00:11:05.685Z,30.50
2017-09-21T00:13:33.954Z,27.37
2017-09-21T00:16:02.194Z,30.23
2017-09-21T00:18:31.264Z,28.90
2017-09-21T00:20:59.518Z,22.40
2017-09-21T00:23:27.786Z,28.10
2017-09-21T00:25:56.036Z,24.60
2017-09-21T00:28:24.300Z,31.70
2017-09-21T00:30:53.303Z,28.67
2017-09-21T00:33:21.562Z,36.33
2017-09-21T00:35:50.603Z,24.40
2017-09-21T00:38:18.873Z,24.53
2017-09-21T00:40:48.768Z,26.77
2017-09-21T00:43:17.042Z,33.20
2017-09-21T00:45:45.307Z,27.10
2017-09-21T00:48:14.363Z,37.53
2017-09-21T00:50:42.650Z,33.70
2017-09-21T00:53:11.683Z,41.37
2017-09-21T00:55:39.943Z,40.17
2017-09-21T00:58:08.954Z,38.97
2017-09-21T01:00:37.230Z,35.97
2017-09-21T01:03:05.515Z,34.50
2017-09-21T01:05:33.815Z,51.03
2017-09-21T01:08:02.087Z,32.37
2017-09-21T01:10:30.317Z,36.00
2017-09-21T01:12:59.358Z,34.70
2017-09-21T01:15:27.642Z,36.03
2017-09-21T01:17:55.882Z,39.83
2017-09-21T01:20:24.910Z,43.43
2017-09-21T01:22:53.277Z,35.37
2017-09-21T01:25:21.561Z,47.53
2017-09-21T01:27:49.841Z,37.70
2017-09-21T01:30:18.126Z,38.63
2017-09-21T01:32:46.420Z,55.27
2017-09-21T01:35:14.703Z,33.47
2017-09-21T01:37:42.987Z,36.20
2017-09-21T01:40:11.270Z,49.23
2017-09-21T01:42:40.334Z,35.93
2017-09-21T01:45:08.635Z,43.33
2017-09-21T01:47:36.877Z,42.10
2017-09-21T01:50:05.156Z,45.10
2017-09-21T01:52:33.425Z,35.57
2017-09-21T01:55:01.703Z,42.47
2017-09-21T01:57:29.984Z,34.47
2017-09-21T01:59:58.258Z,36.03
2017-09-21T02:02:26.534Z,38.70
2017-09-21T02:04:54.822Z,32.73
2017-09-21T02:07:23.072Z,44.40
2017-09-21T02:09:51.346Z,35.87
2017-09-21T02:12:19.638Z,40.43
2017-09-21T02:14:47.906Z,46.03
2017-09-21T02:17:16.173Z,42.20
2017-09-21T02:19:45.182Z,54.77
2017-09-21T02:22:13.443Z,47.27
2017-09-21T02:24:42.479Z,52.03
2017-09-21T02:27:11.157Z,41.60
2017-09-21T02:29:39.418Z,42.60
2017-09-21T02:32:07.673Z,44.40
2017-09-21T02:34:36.699Z,48.20
2017-09-21T02:37:04.975Z,43.10
2017-09-21T02:39:33.226Z,46.70
2017-09-21T02:42:02.266Z,45.30
2017-09-21T02:44:30.531Z,44.23
2017-09-21T02:46:58.799Z,55.53
2017-09-21T02:49:27.068Z,43.53
2017-09-21T02:51:56.107Z,51.20
2017-09-21T02:54:24.337Z,44.43
2017-09-21T02:56:53.362Z,44.73
2017-09-21T02:59:22.233Z,51.80
2017-09-21T03:01:51.264Z,52.30
2017-09-21T03:04:19.485Z,47.90
2017-09-21T03:06:48.504Z,46.60
2017-09-21T03:09:17.527Z,48.03
2017-09-21T03:11:45.748Z,48.27
2017-09-21T03:14:14.767Z,42.50
2017-09-21T03:16:43.015Z,46.27
2017-09-21T03:19:11.250Z,47.83
2017-09-21T03:21:39.494Z,48.97
2017-09-21T03:24:07.770Z,40.23
2017-09-21T03:26:36.060Z,56.93
2017-09-21T03:29:04.297Z,45.20
2017-09-21T03:31:32.536Z,52.27
2017-09-21T03:34:01.543Z,53.97
2017-09-21T03:36:29.798Z,45.17
2017-09-21T03:38:58.056Z,51.00
2017-09-21T03:41:26.298Z,42.87
2017-09-21T03:43:54.569Z,42.20
2017-09-21T03:46:22.822Z,45.40
2017-09-21T03:48:51.106Z,45.60
2017-09-21T03:51:19.375Z,39.20
2017-09-21T03:53:47.619Z,40.00
2017-09-21T03:56:15.878Z,42.50
2017-09-21T03:58:44.925Z,33.77
2017-09-21T04:01:13.171Z,49.50
2017-09-21T04:03:41.422Z,45.53
2017-09-21T04:06:09.683Z,49.50
2017-09-21T04:08:37.928Z,47.33
2017-09-21T04:11:06.192Z,45.67
2017-09-21T04:13:34.478Z,50.63
2017-09-21T04:16:02.752Z,37.67
2017-09-21T04:18:30.987Z,45.33
2017-09-21T04:21:00.125Z,43.40
2017-09-21T04:23:28.394Z,46.63
2017-09-21T04:25:56.645Z,43.30
2017-09-21T04:28:25.673Z,50.27
2017-09-21T04:30:53.930Z,45.63
2017-09-21T04:33:22.188Z,45.77
2017-09-21T04:35:51.214Z,36.03
2017-09-21T04:38:19.470Z,41.43
2017-09-21T04:40:48.482Z,38.60
2017-09-21T04:43:16.766Z,47.90
2017-09-21T04:45:45.059Z,37.37
2017-09-21T04:48:13.386Z,48.60
2017-09-21T04:50:42.722Z,42.40
2017-09-21T04:53:10.974Z,50.23
2017-09-21T04:55:40.027Z,41.50
2017-09-21T04:58:08.280Z,44.67
2017-09-21T05:00:36.605Z,47.83
2017-09-21T05:03:04.963Z,43.93
2017-09-21T05:05:33.273Z,45.80
2017-09-21T05:08:01.618Z,35.67
2017-09-21T05:10:29.923Z,35.90
2017-09-21T05:12:58.991Z,40.80
2017-09-21T05:15:27.330Z,37.33
2017-09-21T05:17:55.577Z,43.03
2017-09-21T05:20:25.351Z,34.97
2017-09-21T05:22:53.632Z,37.20
2017-09-21T05:25:21.921Z,40.80
2017-09-21T05:27:50.134Z,40.70
2017-09-21T05:30:19.176Z,40.50
2017-09-21T05:32:47.406Z,38.30
2017-09-21T05:35:15.668Z,43.67
2017-09-21T05:37:43.947Z,38.07
2017-09-21T05:40:12.975Z,39.03
2017-09-21T05:42:41.214Z,33.87
2017-09-21T05:45:10.235Z,35.03
2017-09-21T05:47:38.537Z,43.20
2017-09-21T05:50:06.805Z,43.17
2017-09-21T05:52:35.082Z,37.70
2017-09-21T05:55:04.033Z,48.23
2017-09-21T05:57:32.245Z,36.10
2017-09-21T06:00:00.515Z,42.63
2017-09-21T06:02:28.783Z,39.50
2017-09-21T06:04:57.783Z,34.03
2017-09-21T06:07:26.086Z,36.63
2017-09-21T06:09:54.318Z,36.77
2017-09-21T06:12:23.349Z,43.07
2017-09-21T06:14:51.607Z,35.03
2017-09-21T06:17:19.886Z,30.90
2017-09-21T06:19:48.176Z,39.43
2017-09-21T06:22:16.446Z,37.57
2017-09-21T06:24:45.462Z,36.53
2017-09-21T06:27:13.754Z,32.07
2017-09-21T06:29:41.998Z,30.77
2017-09-21T06:32:10.272Z,31.90
2017-09-21T06:34:38.503Z,31.60
2017-09-21T06:37:06.764Z,37.60
2017-09-21T06:39:35.011Z,35.03
2017-09-21T06:42:03.272Z,35.50
2017-09-21T06:44:31.529Z,35.60
2017-09-21T06:47:00.634Z,32.60
2017-09-21T06:49:28.921Z,38.27
2017-09-21T06:51:57.918Z,44.00
2017-09-21T06:54:26.952Z,35.70
2017-09-21T06:56:55.207Z,38.27
2017-09-21T06:59:23.490Z,33.93
2017-09-21T07:01:51.749Z,37.43
2017-09-21T07:04:20.099Z,35.70
2017-09-21T07:06:48.336Z,35.10
2017-09-21T07:09:16.584Z,35.47
2017-09-21T07:11:45.628Z,29.90
2017-09-21T07:14:13.863Z,40.83
2017-09-21T07:16:42.203Z,32.80
2017-09-21T07:19:10.427Z,28.80
2017-09-21T07:21:39.475Z,35.23
2017-09-21T07:24:07.762Z,29.20
2017-09-21T07:26:36.847Z,34.80
2017-09-21T07:29:05.118Z,25.73
2017-09-21T07:31:33.379Z,27.37
2017-09-21T07:34:01.643Z,28.40
2017-09-21T07:36:29.903Z,28.27
2017-09-21T07:38:58.183Z,28.10
2017-09-21T07:41:26.430Z,31.53
2017-09-21T07:43:55.500Z,24.83
2017-09-21T07:46:24.223Z,43.60
2017-09-21T07:48:53.238Z,35.60
2017-09-21T07:51:21.489Z,35.53
2017-09-21T07:53:49.782Z,26.53
2017-09-21T07:56:18.037Z,31.70
2017-09-21T07:58:46.322Z,18.17
2017-09-21T08:01:14.583Z,28.10
2017-09-21T08:03:43.674Z,44.43
2017-09-21T08:06:11.945Z,29.70
2017-09-21T08:08:40.198Z,30.60
2017-09-21T08:11:09.243Z,31.43
2017-09-21T08:13:38.270Z,25.30
2017-09-21T08:16:06.530Z,23.03
2017-09-21T08:18:34.769Z,23.13
2017-09-21T08:21:03.042Z,25.37
2017-09-21T08:23:31.370Z,26.73
2017-09-21T08:25:59.623Z,30.77
2017-09-21T08:28:28.638Z,26.90
2017-09-21T08:30:56.882Z,29.00
2017-09-21T08:33:25.928Z,19.70
2017-09-21T08:35:54.194Z,22.33
2017-09-21T08:38:22.454Z,21.53
2017-09-21T08:40:50.716Z,29.57
2017-09-21T08:43:19.753Z,21.83
2017-09-21T08:45:48.064Z,24.50
2017-09-21T08:48:16.309Z,21.03
2017-09-21T08:50:44.534Z,23.17
2017-09-21T08:53:13.575Z,22.87
2017-09-21T08:55:41.855Z,26.10
2017-09-21T08:58:10.107Z,19.77
2017-09-21T09:00:39.123Z,18.67
2017-09-21T09:03:07.393Z,27.90
2017-09-21T09:05:35.650Z,20.20
2017-09-21T09:08:03.918Z,17.37
2017-09-21T09:10:32.955Z,18.70
2017-09-21T09:13:01.222Z,23.73
2017-09-21T09:15:29.475Z,22.00
2017-09-21T09:17:57.709Z,16.20
2017-09-21T09:20:27.598Z,24.20
2017-09-21T09:22:56.440Z,23.30
2017-09-21T09:25:24.747Z,21.10
2017-09-21T09:27:53.099Z,19.40
2017-09-21T09:30:22.119Z,17.97
2017-09-21T09:32:50.385Z,14.03
2017-09-21T09:35:20.008Z,16.53
2017-09-21T09:37:48.323Z,10.50
2017-09-21T09:40:16.550Z,16.57
2017-09-21T09:42:45.601Z,14.53
2017-09-21T09:45:13.886Z,13.37
2017-09-21T09:47:42.145Z,8.93
2017-09-21T09:50:10.390Z,15.40
2017-09-21T09:52:38.643Z,17.60
2017-09-21T09:55:07.664Z,11.73
2017-09-21T09:57:35.914Z,9.43
2017-09-21T10:00:04.939Z,8.00
2017-09-21T10:02:33.227Z,14.20
2017-09-21T10:05:01.483Z,14.60
2017-09-21T10:07:29.743Z,12.10
2017-09-21T10:09:58.794Z,15.63
2017-09-21T10:12:27.065Z,16.03
2017-09-21T10:14:55.342Z,17.70
2017-09-21T10:17:23.626Z,12.60
2017-09-21T10:19:51.865Z,11.10
2017-09-21T10:22:20.950Z,19.03
2017-09-21T10:24:49.941Z,10.07
2017-09-21T10:27:18.967Z,9.13
2017-09-21T10:29:47.225Z,14.37
2017-09-21T10:32:15.490Z,11.07
2017-09-21T10:34:43.888Z,13.83
2017-09-21T10:37:12.880Z,6.80
2017-09-21T10:39:41.131Z,10.93
2017-09-21T10:42:09.520Z,11.33
2017-09-21T10:44:38.516Z,20.90
2017-09-21T10:47:07.523Z,7.27
2017-09-21T10:49:35.821Z,9.70
2017-09-21T10:52:04.078Z,9.23
2017-09-21T10:54:32.328Z,7.23
2017-09-21T10:57:01.386Z,13.33
2017-09-21T10:59:29.656Z,7.70
2017-09-21T11:01:57.907Z,8.93
2017-09-21T11:04:26.969Z,12.13
2017-09-21T11:06:56.014Z,13.33
2017-09-21T11:09:24.267Z,13.43
2017-09-21T11:11:52.622Z,10.97
2017-09-21T11:14:20.863Z,8.37
2017-09-21T11:16:49.150Z,8.10
2017-09-21T11:19:17.455Z,10.93
2017-09-21T11:21:45.678Z,7.87
2017-09-21T11:24:13.922Z,6.40
2017-09-21T11:26:42.948Z,8.03
2017-09-21T11:29:11.195Z,14.90
2017-09-21T11:31:40.227Z,8.03
2017-09-21T11:34:08.512Z,11.07
2017-09-21T11:36:36.812Z,6.67
2017-09-21T11:39:05.834Z,14.57
2017-09-21T11:41:34.852Z,22.93
2017-09-21T11:44:03.128Z,11.43
2017-09-21T11:46:31.390Z,5.73
2017-09-21T11:48:59.664Z,18.03
2017-09-21T11:51:27.911Z,12.77
2017-09-21T11:53:56.210Z,11.37
2017-09-21T11:56:24.466Z,7.93
2017-09-21T11:58:52.729Z,9.53
2017-09-21T12:01:21.032Z,5.90
2017-09-21T12:03:50.622Z,14.77
2017-09-21T12:06:18.881Z,5.57
2017-09-21T12:08:47.258Z,6.03
2017-09-21T12:11:15.562Z,10.93
2017-09-21T12:13:43.849Z,15.23
2017-09-21T12:16:12.105Z,7.90
2017-09-21T12:18:40.408Z,10.43
2017-09-21T12:21:08.627Z,8.67
2017-09-21T12:23:36.901Z,11.43
2017-09-21T12:26:05.884Z,16.57
2017-09-21T12:28:34.145Z,7.10
2017-09-21T12:31:02.417Z,14.00
2017-09-21T12:33:30.707Z,11.80
2017-09-21T12:35:58.948Z,11.87
2017-09-21T12:38:27.196Z,14.10
2017-09-21T12:40:55.463Z,13.10
2017-09-21T12:43:23.760Z,17.30
2017-09-21T12:45:52.057Z,15.80
2017-09-21T12:48:20.324Z,14.47
2017-09-21T12:50:48.595Z,12.87
2017-09-21T12:53:16.846Z,12.50
2017-09-21T12:55:45.125Z,12.00
2017-09-21T12:58:13.395Z,9.60
2017-09-21T13:00:42.446Z,18.67
2017-09-21T13:03:10.713Z,16.57
2017-09-21T13:05:38.964Z,4.90
2017-09-21T13:08:07.228Z,8.93
2017-09-21T13:10:35.479Z,5.10
2017-09-21T13:13:04.514Z,5.73
2017-09-21T13:15:32.755Z,6.37
2017-09-21T13:18:01.782Z,7.33
2017-09-21T13:20:30.125Z,10.13
2017-09-21T13:22:58.405Z,6.10
2017-09-21T13:25:26.778Z,13.23
2017-09-21T13:27:55.010Z,3.93
2017-09-21T13:30:23.294Z,14.63
2017-09-21T13:32:51.605Z,4.57
2017-09-21T13:35:19.849Z,7.20
2017-09-21T13:37:48.155Z,15.73
2017-09-21T13:40:16.438Z,11.57
2017-09-21T13:42:45.465Z,11.73
2017-09-21T13:45:13.756Z,5.57
2017-09-21T13:47:42.021Z,9.40
2017-09-21T13:50:11.016Z,7.93
2017-09-21T13:52:40.085Z,5.40
2017-09-21T13:55:09.111Z,18.67
2017-09-21T13:57:37.376Z,13.43
2017-09-21T14:00:06.380Z,9.33
2017-09-21T14:02:34.671Z,14.27
2017-09-21T14:05:02.929Z,4.77
2017-09-21T14:07:31.197Z,5.30
2017-09-21T14:10:00.242Z,6.33
2017-09-21T14:12:28.473Z,15.87
2017-09-21T14:14:56.758Z,6.37
2017-09-21T14:17:25.102Z,7.17
2017-09-21T14:19:53.686Z,4.93
2017-09-21T14:22:22.738Z,5.33
2017-09-21T14:24:50.988Z,9.63
2017-09-21T14:27:20.060Z,14.67
2017-09-21T14:29:48.322Z,15.30
2017-09-21T14:32:16.576Z,5.77
2017-09-21T14:34:44.822Z,6.43
2017-09-21T14:37:13.083Z,24.40
2017-09-21T14:39:41.393Z,25.23
2017-09-21T14:42:09.688Z,14.60
2017-09-21T14:44:37.964Z,11.80
2017-09-21T14:47:06.223Z,6.20
2017-09-21T14:49:34.471Z,8.73
2017-09-21T14:52:03.523Z,10.23
2017-09-21T14:54:31.784Z,12.40
2017-09-21T14:57:00.066Z,14.13
2017-09-21T14:59:28.310Z,19.63
2017-09-21T15:01:56.578Z,15.47
2017-09-21T15:04:25.653Z,5.27
2017-09-21T15:06:53.932Z,7.67
2017-09-21T15:09:22.282Z,5.23
2017-09-21T15:11:50.588Z,12.70
2017-09-21T15:14:19.782Z,13.03
2017-09-21T15:16:48.008Z,13.90
2017-09-21T15:19:16.269Z,15.83
2017-09-21T15:21:44.556Z,15.63
2017-09-21T15:24:12.821Z,7.70
2017-09-21T15:26:41.122Z,10.20
2017-09-21T15:29:09.390Z,8.77
2017-09-21T15:31:38.544Z,7.67
2017-09-21T15:34:06.821Z,6.80
2017-09-21T15:36:35.117Z,8.20
2017-09-21T15:39:04.125Z,9.33
2017-09-21T15:41:32.408Z,8.70
2017-09-21T15:44:01.110Z,7.83
2017-09-21T15:46:30.564Z,6.37
2017-09-21T15:48:58.890Z,17.47
2017-09-21T15:51:27.824Z,7.70
2017-09-21T15:53:57.216Z,10.13
2017-09-21T15:56:25.508Z,6.30
2017-09-21T15:58:53.806Z,20.87
2017-09-21T16:01:22.050Z,6.80
2017-09-21T16:03:50.322Z,9.37
2017-09-21T16:06:19.057Z,9.37
2017-09-21T16:08:47.383Z,11.10
2017-09-21T16:11:15.711Z,7.53
2017-09-21T16:13:44.782Z,7.17
2017-09-21T16:16:13.123Z,12.60
2017-09-21T16:18:41.715Z,12.23
2017-09-21T16:21:10.117Z,7.87
2017-09-21T16:23:38.419Z,11.30
2017-09-21T16:26:06.700Z,11.33
2017-09-21T16:28:35.011Z,16.23
2017-09-21T16:31:03.272Z,11.27
2017-09-21T16:33:31.588Z,11.47
2017-09-21T16:35:59.933Z,12.53
2017-09-21T16:38:28.210Z,12.97
2017-09-21T16:40:57.344Z,21.40
2017-09-21T16:43:25.607Z,21.40
2017-09-21T16:45:53.917Z,16.03
2017-09-21T16:48:22.977Z,21.90
2017-09-21T16:50:51.293Z,14.60
2017-09-21T16:53:20.458Z,19.57
2017-09-21T16:55:49.739Z,14.90
2017-09-21T16:58:18.333Z,10.33
2017-09-21T17:00:47.564Z,14.53
2017-09-21T17:03:15.882Z,24.03
2017-09-21T17:05:44.962Z,17.93
2017-09-21T17:08:13.836Z,20.03
2017-09-21T17:10:42.152Z,18.50
2017-09-21T17:13:11.207Z,14.47
2017-09-21T17:15:39.475Z,19.23
2017-09-21T17:18:07.804Z,12.40
2017-09-21T17:20:36.842Z,14.87
2017-09-21T17:23:05.132Z,18.60
2017-09-21T17:25:33.413Z,25.37
2017-09-21T17:28:01.699Z,9.17
2017-09-21T17:30:29.967Z,15.43
2017-09-21T17:32:58.280Z,16.30
2017-09-21T17:35:27.346Z,16.87
2017-09-21T17:37:55.626Z,7.73
2017-09-21T17:40:23.868Z,12.70
2017-09-21T17:42:52.229Z,19.43
2017-09-21T17:45:21.292Z,15.63
2017-09-21T17:47:49.982Z,13.47
2017-09-21T17:50:18.209Z,16.10
2017-09-21T17:52:47.413Z,16.03
2017-09-21T17:55:16.566Z,10.53
2017-09-21T17:57:46.352Z,20.47
2017-09-21T18:00:15.467Z,11.13
2017-09-21T18:02:43.844Z,11.10
2017-09-21T18:05:12.121Z,15.13
2017-09-21T18:07:40.397Z,12.63
2017-09-21T18:10:08.676Z,12.50
2017-09-21T18:12:36.925Z,16.80
2017-09-21T18:15:05.265Z,14.77
2017-09-21T18:17:33.577Z,14.67
2017-09-21T18:20:01.990Z,18.43
2017-09-21T18:22:30.288Z,19.90
2017-09-21T18:24:59.388Z,17.37
2017-09-21T18:27:28.440Z,16.13
2017-09-21T18:29:56.675Z,16.40
2017-09-21T18:32:25.017Z,14.20
2017-09-21T18:34:53.598Z,11.00
2017-09-21T18:37:21.948Z,30.13
2017-09-21T18:39:50.462Z,18.50
2017-09-21T18:42:18.795Z,12.70
2017-09-21T18:44:48.391Z,19.77
2017-09-21T18:47:16.723Z,19.13
2017-09-21T18:49:45.029Z,19.33
2017-09-21T18:52:14.944Z,11.80
2017-09-21T18:54:43.318Z,11.00
2017-09-21T18:57:12.624Z,14.80
2017-09-21T18:59:42.032Z,22.17
2017-09-21T19:02:10.726Z,10.80
2017-09-21T19:04:39.130Z,12.17
2017-09-21T19:07:09.184Z,19.23
2017-09-21T19:09:38.923Z,30.20
2017-09-21T19:12:08.423Z,18.10
2017-09-21T19:14:37.636Z,15.80
2017-09-21T19:17:06.636Z,22.50
2017-09-21T19:19:35.333Z,18.60
2017-09-21T19:22:04.389Z,17.37
2017-09-21T19:24:34.694Z,27.50
2017-09-21T19:27:02.973Z,17.00
2017-09-21T19:29:31.598Z,17.33
2017-09-21T19:32:01.200Z,17.40
2017-09-21T19:34:29.566Z,24.50
2017-09-21T19:36:58.117Z,13.97
2017-09-21T19:39:27.040Z,24.63
2017-09-21T19:41:55.302Z,13.83
2017-09-21T19:44:24.223Z,24.53
2017-09-21T19:46:53.460Z,11.97
2017-09-21T19:49:21.988Z,23.17
2017-09-21T19:51:50.423Z,16.30
2017-09-21T19:54:18.725Z,19.33
2017-09-21T19:56:47.065Z,21.70
2017-09-21T19:59:15.505Z,17.23
2017-09-21T20:01:44.008Z,19.10
2017-09-21T20:04:13.040Z,22.50
2017-09-21T20:06:41.937Z,14.73
2017-09-21T20:09:10.262Z,17.30
2017-09-21T20:11:38.540Z,17.90
2017-09-21T20:14:07.157Z,16.90
2017-09-21T20:16:36.183Z,15.00
2017-09-21T20:19:05.428Z,25.90
2017-09-21T20:21:33.924Z,15.10
2017-09-21T20:24:02.977Z,22.43
2017-09-21T20:26:31.301Z,24.40
2017-09-21T20:29:00.372Z,16.97
2017-09-21T20:31:29.648Z,20.57
2017-09-21T20:33:57.916Z,18.13
2017-09-21T20:36:29.161Z,15.20
2017-09-21T20:38:57.487Z,22.60
2017-09-21T20:41:26.549Z,22.23
2017-09-21T20:43:55.040Z,19.17
2017-09-21T20:46:23.644Z,21.17
2017-09-21T20:48:51.905Z,16.10
2017-09-21T20:51:21.048Z,17.37
2017-09-21T20:53:49.309Z,19.60
2017-09-21T20:56:18.351Z,16.90
2017-09-21T20:58:46.649Z,17.33
2017-09-21T21:01:14.944Z,27.00
2017-09-21T21:03:43.221Z,21.67
2017-09-21T21:06:11.469Z,17.37
2017-09-21T21:08:39.876Z,17.63
2017-09-21T21:11:08.184Z,15.73
2017-09-21T21:13:36.491Z,20.80
2017-09-21T21:16:04.790Z,24.63
2017-09-21T21:18:33.161Z,20.20
2017-09-21T21:21:01.455Z,21.53
2017-09-21T21:23:29.742Z,17.13
2017-09-21T21:25:58.798Z,25.03
2017-09-21T21:28:27.082Z,19.30
2017-09-21T21:30:55.413Z,21.23
2017-09-21T21:33:24.439Z,23.60
2017-09-21T21:35:52.750Z,16.77
2017-09-21T21:38:21.040Z,20.57
2017-09-21T21:40:49.325Z,26.13
2017-09-21T21:43:17.610Z,20.50
2017-09-21T21:45:45.892Z,19.07
2017-09-21T21:48:14.933Z,23.43
2017-09-21T21:50:43.166Z,27.83
2017-09-21T21:53:12.227Z,31.53
2017-09-21T21:55:40.493Z,19.20
2017-09-21T21:58:08.813Z,17.00
2017-09-21T22:00:37.394Z,40.07
2017-09-21T22:03:05.669Z,17.43
2017-09-21T22:05:33.951Z,23.80
2017-09-21T22:08:02.254Z,23.17
2017-09-21T22:10:31.494Z,25.30
2017-09-21T22:12:59.836Z,20.30
2017-09-21T22:15:28.093Z,18.50
2017-09-21T22:17:57.134Z,26.70
2017-09-21T22:20:25.415Z,20.83
2017-09-21T22:22:53.689Z,18.80
2017-09-21T22:25:22.015Z,17.83
2017-09-21T22:27:50.284Z,24.50
2017-09-21T22:30:18.590Z,25.47
2017-09-21T22:32:46.843Z,20.90
2017-09-21T22:35:15.865Z,25.03
2017-09-21T22:37:44.212Z,23.70
2017-09-21T22:40:12.450Z,22.47
2017-09-21T22:42:40.725Z,26.70
2017-09-21T22:45:08.953Z,23.70
2017-09-21T22:47:37.984Z,23.23
2017-09-21T22:50:06.244Z,21.40
2017-09-21T22:52:34.521Z,25.67
2017-09-21T22:55:03.550Z,25.20
2017-09-21T22:57:31.785Z,26.07
2017-09-21T23:00:00.029Z,28.10
2017-09-21T23:02:28.335Z,22.07
2017-09-21T23:04:58.319Z,24.77
2017-09-21T23:07:26.584Z,26.73
2017-09-21T23:09:55.218Z,21.97
2017-09-21T23:12:23.488Z,27.13
2017-09-21T23:14:51.782Z,21.40
2017-09-21T23:17:20.138Z,23.03
2017-09-21T23:19:48.375Z,31.87
2017-09-21T23:22:16.653Z,26.13
2017-09-21T23:24:44.925Z,25.33
2017-09-21T23:27:13.176Z,28.27
2017-09-21T23:29:41.433Z,25.70
2017-09-21T23:32:10.486Z,24.20
2017-09-21T23:34:39.621Z,24.97
2017-09-21T23:37:07.906Z,22.27
2017-09-21T23:39:36.123Z,19.23
2017-09-21T23:42:04.382Z,23.63
2017-09-21T23:44:32.685Z,26.97
2017-09-21T23:47:00.945Z,29.13
2017-09-21T23:49:29.204Z,25.93
2017-09-21T23:51:57.447Z,20.40
2017-09-21T23:54:25.705Z,26.10
2017-09-21T23:56:54.004Z,19.27
2017-09-21T23:59:22.280Z,27.70
